sensor_id;sensor_type;location;lat;lon;timestamp;P1;durP1;ratioP1;P2;durP2;ratioP2
1591;SDS011;789;51.612;7.510;2024-03-17T00:01:50;14.77;;;7.63;;
1591;SDS011;789;51.612;7.510;2024-03-17T00:04:17;10.63;;;7.10;;
1591;SDS011;789;51.612;7.510;2024-03-17T00:06:45;13.10;;;8.60;;
1591;SDS011;789;51.612;7.510;2024-03-17T00:09:12;11.50;;;8.10;;
1591;SDS011;789;51.612;7.510;2024-03-17T00:11:38;15.13;;;9.20;;
1591;SDS011;789;51.612;7.510;2024-03-17T00:14:05;12.20;;;7.60;;
1591;SDS011;789;51.612;7.510;2024-03-17T00:16:31;11.00;;;7.83;;
1591;SDS011;789;51.612;7.510;2024-03-17T00:18:58;12.33;;;8.20;;
1591;SDS011;789;51.612;7.510;2024-03-17T00:21:24;9.30;;;7.20;;
1591;SDS011;789;51.612;7.510;2024-03-17T00:23:53;11.60;;;7.60;;
1591;SDS011;789;51.612;7.510;2024-03-17T00:26:19;9.00;;;7.47;;
1591;SDS011;789;51.612;7.510;2024-03-17T00:28:46;10.77;;;7.67;;
1591;SDS011;789;51.612;7.510;2024-03-17T00:31:15;8.27;;;7.17;;
1591;SDS011;789;51.612;7.510;2024-03-17T00:33:41;13.17;;;8.30;;
1591;SDS011;789;51.612;7.510;2024-03-17T00:36:09;11.10;;;7.70;;
1591;SDS011;789;51.612;7.510;2024-03-17T00:38:35;12.80;;;8.60;;
1591;SDS011;789;51.612;7.510;2024-03-17T00:41:03;10.90;;;7.47;;
1591;SDS011;789;51.612;7.510;2024-03-17T00:43:29;15.17;;;11.70;;
1591;SDS011;789;51.612;7.510;2024-03-17T00:45:56;14.50;;;11.80;;
1591;SDS011;789;51.612;7.510;2024-03-17T00:48:23;12.43;;;8.80;;
1591;SDS011;789;51.612;7.510;2024-03-17T00:50:54;12.27;;;7.73;;
1591;SDS011;789;51.612;7.510;2024-03-17T00:53:20;10.60;;;8.00;;
1591;SDS011;789;51.612;7.510;2024-03-17T00:55:50;14.77;;;7.80;;
1591;SDS011;789;51.612;7.510;2024-03-17T00:58:18;12.20;;;8.40;;
1591;SDS011;789;51.612;7.510;2024-03-17T01:00:45;10.63;;;7.90;;
1591;SDS011;789;51.612;7.510;2024-03-17T01:03:12;12.70;;;7.53;;
1591;SDS011;789;51.612;7.510;2024-03-17T01:05:39;11.97;;;7.47;;
1591;SDS011;789;51.612;7.510;2024-03-17T01:08:07;13.87;;;8.27;;
1591;SDS011;789;51.612;7.510;2024-03-17T01:10:36;12.40;;;7.67;;
1591;SDS011;789;51.612;7.510;2024-03-17T01:13:02;10.23;;;8.27;;
1591;SDS011;789;51.612;7.510;2024-03-17T01:15:31;12.33;;;8.10;;
1591;SDS011;789;51.612;7.510;2024-03-17T01:17:57;15.17;;;8.80;;
1591;SDS011;789;51.612;7.510;2024-03-17T01:20:24;12.63;;;8.30;;
1591;SDS011;789;51.612;7.510;2024-03-17T01:22:50;10.20;;;7.50;;
1591;SDS011;789;51.612;7.510;2024-03-17T01:25:17;10.70;;;7.27;;
1591;SDS011;789;51.612;7.510;2024-03-17T01:27:43;14.90;;;8.20;;
1591;SDS011;789;51.612;7.510;2024-03-17T01:30:10;17.33;;;9.97;;
1591;SDS011;789;51.612;7.510;2024-03-17T01:32:37;15.33;;;8.77;;
1591;SDS011;789;51.612;7.510;2024-03-17T01:35:04;14.73;;;9.20;;
1591;SDS011;789;51.612;7.510;2024-03-17T01:37:31;12.87;;;9.27;;
1591;SDS011;789;51.612;7.510;2024-03-17T01:39:57;10.80;;;8.53;;
1591;SDS011;789;51.612;7.510;2024-03-17T01:42:23;15.20;;;9.13;;
1591;SDS011;789;51.612;7.510;2024-03-17T01:44:50;10.67;;;8.40;;
1591;SDS011;789;51.612;7.510;2024-03-17T01:47:16;15.60;;;10.13;;
1591;SDS011;789;51.612;7.510;2024-03-17T01:49:44;11.07;;;8.63;;
1591;SDS011;789;51.612;7.510;2024-03-17T01:52:10;16.13;;;9.87;;
1591;SDS011;789;51.612;7.510;2024-03-17T01:54:37;15.03;;;9.10;;
1591;SDS011;789;51.612;7.510;2024-03-17T01:57:03;16.77;;;9.87;;
1591;SDS011;789;51.612;7.510;2024-03-17T01:59:30;14.70;;;9.10;;
1591;SDS011;789;51.612;7.510;2024-03-17T02:01:56;12.50;;;9.10;;
1591;SDS011;789;51.612;7.510;2024-03-17T02:04:23;12.00;;;8.30;;
1591;SDS011;789;51.612;7.510;2024-03-17T02:06:50;14.97;;;8.57;;
1591;SDS011;789;51.612;7.510;2024-03-17T02:09:16;14.27;;;8.00;;
1591;SDS011;789;51.612;7.510;2024-03-17T02:11:43;10.60;;;7.87;;
1591;SDS011;789;51.612;7.510;2024-03-17T02:14:10;11.10;;;7.93;;
1591;SDS011;789;51.612;7.510;2024-03-17T02:16:38;11.40;;;8.13;;
1591;SDS011;789;51.612;7.510;2024-03-17T02:19:05;14.53;;;8.13;;
1591;SDS011;789;51.612;7.510;2024-03-17T02:21:31;9.90;;;7.70;;
1591;SDS011;789;51.612;7.510;2024-03-17T02:23:59;10.00;;;8.00;;
1591;SDS011;789;51.612;7.510;2024-03-17T02:26:26;11.60;;;8.30;;
1591;SDS011;789;51.612;7.510;2024-03-17T02:28:53;10.60;;;7.97;;
1591;SDS011;789;51.612;7.510;2024-03-17T02:31:20;17.47;;;8.97;;
1591;SDS011;789;51.612;7.510;2024-03-17T02:33:47;12.43;;;8.17;;
1591;SDS011;789;51.612;7.510;2024-03-17T02:36:14;14.80;;;8.77;;
1591;SDS011;789;51.612;7.510;2024-03-17T02:38:42;10.93;;;8.10;;
1591;SDS011;789;51.612;7.510;2024-03-17T02:41:27;10.60;;;7.73;;
1591;SDS011;789;51.612;7.510;2024-03-17T02:43:55;14.33;;;8.87;;
1591;SDS011;789;51.612;7.510;2024-03-17T02:46:22;10.80;;;8.60;;
1591;SDS011;789;51.612;7.510;2024-03-17T02:48:50;14.80;;;9.33;;
1591;SDS011;789;51.612;7.510;2024-03-17T02:51:18;12.20;;;8.00;;
1591;SDS011;789;51.612;7.510;2024-03-17T02:53:46;13.20;;;8.70;;
1591;SDS011;789;51.612;7.510;2024-03-17T02:56:15;12.37;;;8.50;;
1591;SDS011;789;51.612;7.510;2024-03-17T02:58:44;11.83;;;8.20;;
1591;SDS011;789;51.612;7.510;2024-03-17T03:01:12;12.43;;;7.90;;
1591;SDS011;789;51.612;7.510;2024-03-17T03:03:39;11.43;;;8.03;;
1591;SDS011;789;51.612;7.510;2024-03-17T03:06:06;10.90;;;7.70;;
1591;SDS011;789;51.612;7.510;2024-03-17T03:08:36;10.57;;;7.50;;
1591;SDS011;789;51.612;7.510;2024-03-17T03:11:05;8.77;;;6.87;;
1591;SDS011;789;51.612;7.510;2024-03-17T03:13:35;11.47;;;7.93;;
1591;SDS011;789;51.612;7.510;2024-03-17T03:16:04;10.13;;;8.00;;
1591;SDS011;789;51.612;7.510;2024-03-17T03:18:31;10.90;;;8.60;;
1591;SDS011;789;51.612;7.510;2024-03-17T03:20:58;12.93;;;8.20;;
1591;SDS011;789;51.612;7.510;2024-03-17T03:23:25;11.80;;;8.13;;
1591;SDS011;789;51.612;7.510;2024-03-17T03:25:54;8.93;;;8.00;;
1591;SDS011;789;51.612;7.510;2024-03-17T03:28:22;14.23;;;7.83;;
1591;SDS011;789;51.612;7.510;2024-03-17T03:30:48;11.57;;;8.97;;
1591;SDS011;789;51.612;7.510;2024-03-17T03:33:17;14.37;;;8.30;;
1591;SDS011;789;51.612;7.510;2024-03-17T03:35:44;11.60;;;7.97;;
1591;SDS011;789;51.612;7.510;2024-03-17T03:38:11;11.97;;;8.10;;
1591;SDS011;789;51.612;7.510;2024-03-17T03:40:38;12.43;;;8.67;;
1591;SDS011;789;51.612;7.510;2024-03-17T03:43:05;12.73;;;8.50;;
1591;SDS011;789;51.612;7.510;2024-03-17T03:45:33;9.93;;;7.80;;
1591;SDS011;789;51.612;7.510;2024-03-17T03:48:00;15.47;;;9.03;;
1591;SDS011;789;51.612;7.510;2024-03-17T03:50:29;10.47;;;8.50;;
1591;SDS011;789;51.612;7.510;2024-03-17T03:52:56;12.17;;;8.57;;
1591;SDS011;789;51.612;7.510;2024-03-17T03:55:23;10.53;;;8.80;;
1591;SDS011;789;51.612;7.510;2024-03-17T03:57:50;13.40;;;9.23;;
1591;SDS011;789;51.612;7.510;2024-03-17T04:00:17;10.57;;;8.90;;
1591;SDS011;789;51.612;7.510;2024-03-17T04:02:47;11.83;;;8.73;;
1591;SDS011;789;51.612;7.510;2024-03-17T04:05:15;10.20;;;8.20;;
1591;SDS011;789;51.612;7.510;2024-03-17T04:07:44;14.57;;;8.93;;
1591;SDS011;789;51.612;7.510;2024-03-17T04:10:12;14.73;;;8.50;;
1591;SDS011;789;51.612;7.510;2024-03-17T04:12:39;12.30;;;9.50;;
1591;SDS011;789;51.612;7.510;2024-03-17T04:15:07;13.30;;;8.30;;
1591;SDS011;789;51.612;7.510;2024-03-17T04:17:35;12.43;;;8.60;;
1591;SDS011;789;51.612;7.510;2024-03-17T04:20:02;10.27;;;8.57;;
1591;SDS011;789;51.612;7.510;2024-03-17T04:22:33;14.83;;;9.50;;
1591;SDS011;789;51.612;7.510;2024-03-17T04:25:01;9.83;;;8.40;;
1591;SDS011;789;51.612;7.510;2024-03-17T04:27:28;12.50;;;9.17;;
1591;SDS011;789;51.612;7.510;2024-03-17T04:29:57;13.83;;;9.00;;
1591;SDS011;789;51.612;7.510;2024-03-17T04:32:25;16.53;;;9.40;;
1591;SDS011;789;51.612;7.510;2024-03-17T04:34:52;9.37;;;8.20;;
1591;SDS011;789;51.612;7.510;2024-03-17T04:37:19;10.47;;;8.67;;
1591;SDS011;789;51.612;7.510;2024-03-17T04:39:47;12.00;;;9.20;;
1591;SDS011;789;51.612;7.510;2024-03-17T04:42:15;11.93;;;9.50;;
1591;SDS011;789;51.612;7.510;2024-03-17T04:44:44;13.93;;;9.00;;
1591;SDS011;789;51.612;7.510;2024-03-17T04:47:11;10.40;;;8.10;;
1591;SDS011;789;51.612;7.510;2024-03-17T04:49:39;12.23;;;8.83;;
1591;SDS011;789;51.612;7.510;2024-03-17T04:52:06;13.30;;;8.50;;
1591;SDS011;789;51.612;7.510;2024-03-17T04:54:34;11.30;;;8.80;;
1591;SDS011;789;51.612;7.510;2024-03-17T04:57:00;13.20;;;8.50;;
1591;SDS011;789;51.612;7.510;2024-03-17T04:59:29;11.40;;;8.70;;
1591;SDS011;789;51.612;7.510;2024-03-17T05:01:56;12.47;;;9.40;;
1591;SDS011;789;51.612;7.510;2024-03-17T05:04:22;13.57;;;8.83;;
1591;SDS011;789;51.612;7.510;2024-03-17T05:06:49;10.30;;;8.10;;
1591;SDS011;789;51.612;7.510;2024-03-17T05:09:16;13.07;;;8.47;;
1591;SDS011;789;51.612;7.510;2024-03-17T05:11:43;11.43;;;8.70;;
1591;SDS011;789;51.612;7.510;2024-03-17T05:14:10;11.30;;;8.90;;
1591;SDS011;789;51.612;7.510;2024-03-17T05:16:38;11.77;;;8.53;;
1591;SDS011;789;51.612;7.510;2024-03-17T05:19:05;12.60;;;9.33;;
1591;SDS011;789;51.612;7.510;2024-03-17T05:21:34;12.20;;;8.27;;
1591;SDS011;789;51.612;7.510;2024-03-17T05:24:01;12.93;;;8.63;;
1591;SDS011;789;51.612;7.510;2024-03-17T05:26:28;16.03;;;8.93;;
1591;SDS011;789;51.612;7.510;2024-03-17T05:28:56;11.93;;;8.33;;
1591;SDS011;789;51.612;7.510;2024-03-17T05:31:23;13.30;;;8.70;;
1591;SDS011;789;51.612;7.510;2024-03-17T05:33:51;8.77;;;7.83;;
1591;SDS011;789;51.612;7.510;2024-03-17T05:36:18;14.30;;;8.67;;
1591;SDS011;789;51.612;7.510;2024-03-17T05:38:46;11.30;;;8.27;;
1591;SDS011;789;51.612;7.510;2024-03-17T05:41:13;13.77;;;9.30;;
1591;SDS011;789;51.612;7.510;2024-03-17T05:43:40;9.43;;;8.33;;
1591;SDS011;789;51.612;7.510;2024-03-17T05:46:08;11.20;;;8.70;;
1591;SDS011;789;51.612;7.510;2024-03-17T05:48:38;16.47;;;9.47;;
1591;SDS011;789;51.612;7.510;2024-03-17T05:51:07;10.97;;;9.03;;
1591;SDS011;789;51.612;7.510;2024-03-17T05:53:34;12.83;;;9.70;;
1591;SDS011;789;51.612;7.510;2024-03-17T05:56:02;15.07;;;9.23;;
1591;SDS011;789;51.612;7.510;2024-03-17T05:58:29;13.07;;;8.83;;
1591;SDS011;789;51.612;7.510;2024-03-17T06:00:56;12.97;;;8.57;;
1591;SDS011;789;51.612;7.510;2024-03-17T06:03:23;12.87;;;9.97;;
1591;SDS011;789;51.612;7.510;2024-03-17T06:05:50;11.30;;;9.40;;
1591;SDS011;789;51.612;7.510;2024-03-17T06:08:18;12.90;;;9.03;;
1591;SDS011;789;51.612;7.510;2024-03-17T06:10:45;17.20;;;9.20;;
1591;SDS011;789;51.612;7.510;2024-03-17T06:13:14;13.40;;;9.50;;
1591;SDS011;789;51.612;7.510;2024-03-17T06:15:42;11.73;;;9.20;;
1591;SDS011;789;51.612;7.510;2024-03-17T06:18:11;16.40;;;9.00;;
1591;SDS011;789;51.612;7.510;2024-03-17T06:20:39;14.03;;;10.27;;
1591;SDS011;789;51.612;7.510;2024-03-17T06:23:08;13.70;;;9.43;;
1591;SDS011;789;51.612;7.510;2024-03-17T06:25:39;13.63;;;9.03;;
1591;SDS011;789;51.612;7.510;2024-03-17T06:28:06;11.27;;;9.27;;
1591;SDS011;789;51.612;7.510;2024-03-17T06:30:34;15.93;;;9.50;;
1591;SDS011;789;51.612;7.510;2024-03-17T06:33:02;10.53;;;8.93;;
1591;SDS011;789;51.612;7.510;2024-03-17T06:35:30;11.90;;;8.73;;
1591;SDS011;789;51.612;7.510;2024-03-17T06:37:58;12.40;;;8.77;;
1591;SDS011;789;51.612;7.510;2024-03-17T06:40:26;12.73;;;9.23;;
1591;SDS011;789;51.612;7.510;2024-03-17T06:42:54;11.83;;;9.03;;
1591;SDS011;789;51.612;7.510;2024-03-17T06:45:21;13.33;;;9.20;;
1591;SDS011;789;51.612;7.510;2024-03-17T06:47:49;14.63;;;9.13;;
1591;SDS011;789;51.612;7.510;2024-03-17T06:50:16;12.93;;;9.40;;
1591;SDS011;789;51.612;7.510;2024-03-17T06:52:42;28.13;;;18.13;;
1591;SDS011;789;51.612;7.510;2024-03-17T06:55:09;30.43;;;23.23;;
1591;SDS011;789;51.612;7.510;2024-03-17T06:57:37;22.43;;;14.70;;
1591;SDS011;789;51.612;7.510;2024-03-17T07:00:06;12.07;;;9.00;;
1591;SDS011;789;51.612;7.510;2024-03-17T07:02:38;11.53;;;9.17;;
1591;SDS011;789;51.612;7.510;2024-03-17T07:05:06;12.67;;;9.17;;
1591;SDS011;789;51.612;7.510;2024-03-17T07:07:33;18.07;;;9.23;;
1591;SDS011;789;51.612;7.510;2024-03-17T07:10:00;10.60;;;8.70;;
1591;SDS011;789;51.612;7.510;2024-03-17T07:12:30;13.40;;;9.27;;
1591;SDS011;789;51.612;7.510;2024-03-17T07:14:56;10.20;;;8.10;;
1591;SDS011;789;51.612;7.510;2024-03-17T07:17:24;10.00;;;8.00;;
1591;SDS011;789;51.612;7.510;2024-03-17T07:19:51;9.90;;;8.70;;
1591;SDS011;789;51.612;7.510;2024-03-17T07:22:18;11.20;;;8.80;;
1591;SDS011;789;51.612;7.510;2024-03-17T07:24:45;9.80;;;8.27;;
1591;SDS011;789;51.612;7.510;2024-03-17T07:27:12;12.27;;;8.63;;
1591;SDS011;789;51.612;7.510;2024-03-17T07:29:39;10.87;;;9.43;;
1591;SDS011;789;51.612;7.510;2024-03-17T07:32:06;11.60;;;9.03;;
1591;SDS011;789;51.612;7.510;2024-03-17T07:34:34;10.50;;;9.40;;
1591;SDS011;789;51.612;7.510;2024-03-17T07:37:01;12.00;;;9.37;;
1591;SDS011;789;51.612;7.510;2024-03-17T07:39:28;9.63;;;8.67;;
1591;SDS011;789;51.612;7.510;2024-03-17T07:41:57;12.03;;;9.73;;
1591;SDS011;789;51.612;7.510;2024-03-17T07:44:24;11.77;;;9.73;;
1591;SDS011;789;51.612;7.510;2024-03-17T07:46:51;10.57;;;9.20;;
1591;SDS011;789;51.612;7.510;2024-03-17T07:49:20;13.00;;;10.13;;
1591;SDS011;789;51.612;7.510;2024-03-17T07:51:48;12.77;;;9.63;;
1591;SDS011;789;51.612;7.510;2024-03-17T07:54:15;17.07;;;10.60;;
1591;SDS011;789;51.612;7.510;2024-03-17T07:56:43;10.80;;;9.57;;
1591;SDS011;789;51.612;7.510;2024-03-17T07:59:11;12.00;;;10.70;;
1591;SDS011;789;51.612;7.510;2024-03-17T08:01:40;10.97;;;9.83;;
1591;SDS011;789;51.612;7.510;2024-03-17T08:04:07;10.77;;;9.67;;
1591;SDS011;789;51.612;7.510;2024-03-17T08:06:33;12.43;;;9.90;;
1591;SDS011;789;51.612;7.510;2024-03-17T08:09:04;15.10;;;10.90;;
1591;SDS011;789;51.612;7.510;2024-03-17T08:11:33;12.33;;;10.00;;
1591;SDS011;789;51.612;7.510;2024-03-17T08:13:59;11.90;;;10.40;;
1591;SDS011;789;51.612;7.510;2024-03-17T08:16:26;11.93;;;9.47;;
1591;SDS011;789;51.612;7.510;2024-03-17T08:18:54;10.50;;;9.40;;
1591;SDS011;789;51.612;7.510;2024-03-17T08:21:21;11.67;;;9.77;;
1591;SDS011;789;51.612;7.510;2024-03-17T08:23:47;12.30;;;9.50;;
1591;SDS011;789;51.612;7.510;2024-03-17T08:26:16;12.80;;;9.03;;
1591;SDS011;789;51.612;7.510;2024-03-17T08:28:42;10.77;;;9.57;;
1591;SDS011;789;51.612;7.510;2024-03-17T08:31:09;11.47;;;9.60;;
1591;SDS011;789;51.612;7.510;2024-03-17T08:33:37;11.20;;;9.83;;
1591;SDS011;789;51.612;7.510;2024-03-17T08:36:05;9.60;;;7.90;;
1591;SDS011;789;51.612;7.510;2024-03-17T08:38:33;13.00;;;9.00;;
1591;SDS011;789;51.612;7.510;2024-03-17T08:41:01;11.73;;;8.90;;
1591;SDS011;789;51.612;7.510;2024-03-17T08:43:30;11.10;;;9.17;;
1591;SDS011;789;51.612;7.510;2024-03-17T08:45:58;10.47;;;8.13;;
1591;SDS011;789;51.612;7.510;2024-03-17T08:48:27;10.00;;;8.03;;
1591;SDS011;789;51.612;7.510;2024-03-17T08:50:55;9.80;;;8.37;;
1591;SDS011;789;51.612;7.510;2024-03-17T08:53:23;9.00;;;8.10;;
1591;SDS011;789;51.612;7.510;2024-03-17T08:55:50;8.10;;;7.30;;
1591;SDS011;789;51.612;7.510;2024-03-17T08:58:17;9.00;;;7.73;;
1591;SDS011;789;51.612;7.510;2024-03-17T09:00:45;9.40;;;7.33;;
1591;SDS011;789;51.612;7.510;2024-03-17T09:03:12;9.60;;;8.17;;
1591;SDS011;789;51.612;7.510;2024-03-17T09:05:40;7.77;;;6.73;;
1591;SDS011;789;51.612;7.510;2024-03-17T09:08:09;8.77;;;7.70;;
1591;SDS011;789;51.612;7.510;2024-03-17T09:10:42;8.37;;;7.47;;
1591;SDS011;789;51.612;7.510;2024-03-17T09:13:10;8.60;;;7.70;;
1591;SDS011;789;51.612;7.510;2024-03-17T09:15:39;8.57;;;7.67;;
1591;SDS011;789;51.612;7.510;2024-03-17T09:18:07;9.43;;;6.27;;
1591;SDS011;789;51.612;7.510;2024-03-17T09:20:34;7.10;;;6.10;;
1591;SDS011;789;51.612;7.510;2024-03-17T09:23:01;9.30;;;7.10;;
1591;SDS011;789;51.612;7.510;2024-03-17T09:25:28;6.73;;;6.13;;
1591;SDS011;789;51.612;7.510;2024-03-17T09:27:55;6.80;;;5.43;;
1591;SDS011;789;51.612;7.510;2024-03-17T09:30:21;9.80;;;6.07;;
1591;SDS011;789;51.612;7.510;2024-03-17T09:32:48;6.20;;;5.60;;
1591;SDS011;789;51.612;7.510;2024-03-17T09:35:16;7.03;;;6.43;;
1591;SDS011;789;51.612;7.510;2024-03-17T09:37:43;7.80;;;6.50;;
1591;SDS011;789;51.612;7.510;2024-03-17T09:40:13;6.10;;;5.53;;
1591;SDS011;789;51.612;7.510;2024-03-17T09:42:41;6.63;;;6.03;;
1591;SDS011;789;51.612;7.510;2024-03-17T09:45:08;6.17;;;5.63;;
1591;SDS011;789;51.612;7.510;2024-03-17T09:47:36;6.07;;;5.47;;
1591;SDS011;789;51.612;7.510;2024-03-17T09:50:04;9.47;;;6.63;;
1591;SDS011;789;51.612;7.510;2024-03-17T09:52:40;6.50;;;5.90;;
1591;SDS011;789;51.612;7.510;2024-03-17T09:55:09;6.57;;;5.67;;
1591;SDS011;789;51.612;7.510;2024-03-17T09:57:41;6.50;;;5.80;;
1591;SDS011;789;51.612;7.510;2024-03-17T10:00:09;7.60;;;5.90;;
1591;SDS011;789;51.612;7.510;2024-03-17T10:02:41;7.80;;;6.40;;
1591;SDS011;789;51.612;7.510;2024-03-17T10:05:17;9.87;;;5.90;;
1591;SDS011;789;51.612;7.510;2024-03-17T10:07:47;6.13;;;5.53;;
1591;SDS011;789;51.612;7.510;2024-03-17T10:10:14;8.27;;;5.57;;
1591;SDS011;789;51.612;7.510;2024-03-17T10:12:43;6.43;;;5.83;;
1591;SDS011;789;51.612;7.510;2024-03-17T10:15:15;7.50;;;5.40;;
1591;SDS011;789;51.612;7.510;2024-03-17T10:17:41;5.87;;;5.33;;
1591;SDS011;789;51.612;7.510;2024-03-17T10:20:15;6.67;;;6.10;;
1591;SDS011;789;51.612;7.510;2024-03-17T10:22:58;6.70;;;4.97;;
1591;SDS011;789;51.612;7.510;2024-03-17T10:25:26;6.30;;;5.70;;
1591;SDS011;789;51.612;7.510;2024-03-17T10:27:53;5.90;;;5.13;;
1591;SDS011;789;51.612;7.510;2024-03-17T10:30:21;24.27;;;21.00;;
1591;SDS011;789;51.612;7.510;2024-03-17T10:32:54;9.37;;;7.20;;
1591;SDS011;789;51.612;7.510;2024-03-17T10:35:26;5.97;;;5.47;;
1591;SDS011;789;51.612;7.510;2024-03-17T10:37:54;7.40;;;6.30;;
1591;SDS011;789;51.612;7.510;2024-03-17T10:40:23;6.40;;;5.67;;
1591;SDS011;789;51.612;7.510;2024-03-17T10:42:51;7.70;;;5.93;;
1591;SDS011;789;51.612;7.510;2024-03-17T10:45:18;6.20;;;5.60;;
1591;SDS011;789;51.612;7.510;2024-03-17T10:47:47;6.73;;;6.03;;
1591;SDS011;789;51.612;7.510;2024-03-17T10:50:16;6.87;;;6.17;;
1591;SDS011;789;51.612;7.510;2024-03-17T10:52:44;6.27;;;5.63;;
1591;SDS011;789;51.612;7.510;2024-03-17T10:55:19;5.57;;;5.00;;
1591;SDS011;789;51.612;7.510;2024-03-17T10:57:49;8.03;;;6.33;;
1591;SDS011;789;51.612;7.510;2024-03-17T11:00:17;7.93;;;5.97;;
1591;SDS011;789;51.612;7.510;2024-03-17T11:02:47;8.10;;;5.37;;
1591;SDS011;789;51.612;7.510;2024-03-17T11:05:16;6.60;;;5.90;;
1591;SDS011;789;51.612;7.510;2024-03-17T11:07:45;6.03;;;5.20;;
1591;SDS011;789;51.612;7.510;2024-03-17T11:10:18;6.37;;;5.30;;
1591;SDS011;789;51.612;7.510;2024-03-17T11:12:46;9.83;;;5.77;;
1591;SDS011;789;51.612;7.510;2024-03-17T11:15:35;5.97;;;5.20;;
1591;SDS011;789;51.612;7.510;2024-03-17T11:20:58;6.80;;;5.70;;
1591;SDS011;789;51.612;7.510;2024-03-17T11:23:27;6.33;;;5.73;;
1591;SDS011;789;51.612;7.510;2024-03-17T11:25:56;6.17;;;5.57;;
1591;SDS011;789;51.612;7.510;2024-03-17T11:28:45;7.20;;;5.40;;
1591;SDS011;789;51.612;7.510;2024-03-17T11:34:00;7.13;;;5.63;;
1591;SDS011;789;51.612;7.510;2024-03-17T11:36:38;8.07;;;5.30;;
1591;SDS011;789;51.612;7.510;2024-03-17T11:39:04;5.80;;;5.30;;
1591;SDS011;789;51.612;7.510;2024-03-17T11:41:36;5.60;;;5.10;;
1591;SDS011;789;51.612;7.510;2024-03-17T11:44:18;6.87;;;5.43;;
1591;SDS011;789;51.612;7.510;2024-03-17T11:46:52;6.30;;;5.50;;
1591;SDS011;789;51.612;7.510;2024-03-17T11:49:19;6.87;;;5.50;;
1591;SDS011;789;51.612;7.510;2024-03-17T11:51:47;7.30;;;5.30;;
1591;SDS011;789;51.612;7.510;2024-03-17T11:54:14;5.50;;;5.00;;
1591;SDS011;789;51.612;7.510;2024-03-17T11:56:44;7.43;;;5.23;;
1591;SDS011;789;51.612;7.510;2024-03-17T11:59:10;7.93;;;5.47;;
1591;SDS011;789;51.612;7.510;2024-03-17T12:01:38;6.03;;;5.13;;
1591;SDS011;789;51.612;7.510;2024-03-17T12:04:05;6.87;;;4.80;;
1591;SDS011;789;51.612;7.510;2024-03-17T12:06:32;5.13;;;4.63;;
1591;SDS011;789;51.612;7.510;2024-03-17T12:11:49;5.80;;;4.70;;
1591;SDS011;789;51.612;7.510;2024-03-17T12:14:18;5.70;;;4.97;;
1591;SDS011;789;51.612;7.510;2024-03-17T12:16:47;6.13;;;4.80;;
1591;SDS011;789;51.612;7.510;2024-03-17T12:19:17;4.83;;;4.43;;
1591;SDS011;789;51.612;7.510;2024-03-17T12:21:44;5.07;;;4.67;;
1591;SDS011;789;51.612;7.510;2024-03-17T12:24:15;5.13;;;4.67;;
1591;SDS011;789;51.612;7.510;2024-03-17T12:26:44;5.70;;;5.03;;
1591;SDS011;789;51.612;7.510;2024-03-17T12:29:23;5.10;;;4.60;;
1591;SDS011;789;51.612;7.510;2024-03-17T12:31:54;5.23;;;4.47;;
1591;SDS011;789;51.612;7.510;2024-03-17T12:34:21;4.47;;;4.07;;
1591;SDS011;789;51.612;7.510;2024-03-17T12:36:48;7.53;;;4.40;;
1591;SDS011;789;51.612;7.510;2024-03-17T12:39:18;4.37;;;3.97;;
1591;SDS011;789;51.612;7.510;2024-03-17T12:42:00;4.00;;;3.47;;
1591;SDS011;789;51.612;7.510;2024-03-17T12:44:30;5.20;;;4.30;;
1591;SDS011;789;51.612;7.510;2024-03-17T12:46:59;4.93;;;3.93;;
1591;SDS011;789;51.612;7.510;2024-03-17T12:49:26;3.93;;;3.53;;
1591;SDS011;789;51.612;7.510;2024-03-17T12:51:54;3.80;;;3.43;;
1591;SDS011;789;51.612;7.510;2024-03-17T12:54:20;4.70;;;3.33;;
1591;SDS011;789;51.612;7.510;2024-03-17T12:56:49;5.73;;;3.50;;
1591;SDS011;789;51.612;7.510;2024-03-17T12:59:38;3.83;;;3.43;;
1591;SDS011;789;51.612;7.510;2024-03-17T13:02:24;4.70;;;3.80;;
1591;SDS011;789;51.612;7.510;2024-03-17T13:05:06;4.93;;;3.83;;
1591;SDS011;789;51.612;7.510;2024-03-17T13:07:34;5.00;;;3.63;;
1591;SDS011;789;51.612;7.510;2024-03-17T13:10:01;6.43;;;4.57;;
1591;SDS011;789;51.612;7.510;2024-03-17T13:12:29;5.70;;;4.03;;
1591;SDS011;789;51.612;7.510;2024-03-17T13:14:55;5.53;;;3.80;;
1591;SDS011;789;51.612;7.510;2024-03-17T13:17:22;4.10;;;3.70;;
1591;SDS011;789;51.612;7.510;2024-03-17T13:19:50;5.30;;;4.10;;
1591;SDS011;789;51.612;7.510;2024-03-17T13:22:17;7.10;;;4.17;;
1591;SDS011;789;51.612;7.510;2024-03-17T13:24:44;6.23;;;4.27;;
1591;SDS011;789;51.612;7.510;2024-03-17T13:27:10;5.50;;;4.90;;
1591;SDS011;789;51.612;7.510;2024-03-17T13:29:39;5.90;;;5.03;;
1591;SDS011;789;51.612;7.510;2024-03-17T13:32:09;6.70;;;4.90;;
1591;SDS011;789;51.612;7.510;2024-03-17T13:34:36;5.00;;;4.50;;
1591;SDS011;789;51.612;7.510;2024-03-17T13:37:04;5.50;;;4.90;;
1591;SDS011;789;51.612;7.510;2024-03-17T13:39:32;6.70;;;4.93;;
1591;SDS011;789;51.612;7.510;2024-03-17T13:41:59;5.30;;;4.80;;
1591;SDS011;789;51.612;7.510;2024-03-17T13:44:28;10.80;;;5.63;;
1591;SDS011;789;51.612;7.510;2024-03-17T13:46:56;8.03;;;4.90;;
1591;SDS011;789;51.612;7.510;2024-03-17T13:49:23;4.60;;;4.10;;
1591;SDS011;789;51.612;7.510;2024-03-17T13:51:50;5.83;;;4.67;;
1591;SDS011;789;51.612;7.510;2024-03-17T13:54:18;5.50;;;4.60;;
1591;SDS011;789;51.612;7.510;2024-03-17T13:56:46;4.93;;;4.43;;
1591;SDS011;789;51.612;7.510;2024-03-17T13:59:13;5.47;;;4.50;;
1591;SDS011;789;51.612;7.510;2024-03-17T14:01:40;4.90;;;4.27;;
1591;SDS011;789;51.612;7.510;2024-03-17T14:04:09;5.57;;;4.40;;
1591;SDS011;789;51.612;7.510;2024-03-17T14:06:40;6.70;;;4.30;;
1591;SDS011;789;51.612;7.510;2024-03-17T14:09:06;5.97;;;4.40;;
1591;SDS011;789;51.612;7.510;2024-03-17T14:11:36;6.07;;;4.70;;
1591;SDS011;789;51.612;7.510;2024-03-17T14:14:03;6.97;;;4.67;;
1591;SDS011;789;51.612;7.510;2024-03-17T14:16:31;6.43;;;5.10;;
1591;SDS011;789;51.612;7.510;2024-03-17T14:18:58;6.27;;;4.47;;
1591;SDS011;789;51.612;7.510;2024-03-17T14:21:26;4.73;;;4.00;;
1591;SDS011;789;51.612;7.510;2024-03-17T14:23:53;4.73;;;4.23;;
1591;SDS011;789;51.612;7.510;2024-03-17T14:26:20;5.73;;;4.10;;
1591;SDS011;789;51.612;7.510;2024-03-17T14:28:48;5.77;;;4.40;;
1591;SDS011;789;51.612;7.510;2024-03-17T14:31:16;6.07;;;4.10;;
1591;SDS011;789;51.612;7.510;2024-03-17T14:33:43;8.03;;;4.40;;
1591;SDS011;789;51.612;7.510;2024-03-17T14:36:10;7.23;;;4.43;;
1591;SDS011;789;51.612;7.510;2024-03-17T14:38:37;4.63;;;4.00;;
1591;SDS011;789;51.612;7.510;2024-03-17T14:41:03;5.07;;;4.17;;
1591;SDS011;789;51.612;7.510;2024-03-17T14:43:31;6.90;;;4.03;;
1591;SDS011;789;51.612;7.510;2024-03-17T14:46:02;5.60;;;4.20;;
1591;SDS011;789;51.612;7.510;2024-03-17T14:48:29;4.40;;;4.00;;
1591;SDS011;789;51.612;7.510;2024-03-17T14:50:55;4.80;;;3.33;;
1591;SDS011;789;51.612;7.510;2024-03-17T14:53:22;5.50;;;3.60;;
1591;SDS011;789;51.612;7.510;2024-03-17T14:55:49;6.60;;;4.50;;
1591;SDS011;789;51.612;7.510;2024-03-17T14:58:15;6.10;;;4.30;;
1591;SDS011;789;51.612;7.510;2024-03-17T15:00:42;4.47;;;3.50;;
1591;SDS011;789;51.612;7.510;2024-03-17T15:03:10;5.70;;;3.63;;
1591;SDS011;789;51.612;7.510;2024-03-17T15:05:37;3.83;;;3.43;;
1591;SDS011;789;51.612;7.510;2024-03-17T15:08:04;6.23;;;3.30;;
1591;SDS011;789;51.612;7.510;2024-03-17T15:10:34;5.30;;;3.30;;
1591;SDS011;789;51.612;7.510;2024-03-17T15:13:01;6.13;;;3.60;;
1591;SDS011;789;51.612;7.510;2024-03-17T15:15:28;3.70;;;3.03;;
1591;SDS011;789;51.612;7.510;2024-03-17T15:17:55;3.73;;;3.40;;
1591;SDS011;789;51.612;7.510;2024-03-17T15:20:23;4.30;;;2.93;;
1591;SDS011;789;51.612;7.510;2024-03-17T15:22:50;4.13;;;3.40;;
1591;SDS011;789;51.612;7.510;2024-03-17T15:25:17;4.10;;;3.40;;
1591;SDS011;789;51.612;7.510;2024-03-17T15:27:45;8.13;;;3.40;;
1591;SDS011;789;51.612;7.510;2024-03-17T15:30:12;6.13;;;4.10;;
1591;SDS011;789;51.612;7.510;2024-03-17T15:32:43;4.73;;;4.07;;
1591;SDS011;789;51.612;7.510;2024-03-17T15:35:10;5.63;;;4.20;;
1591;SDS011;789;51.612;7.510;2024-03-17T15:37:40;6.67;;;4.97;;